Miltona, Minnesota
Current Conditions -  °F | °C
As of 6:53 PM on Saturday 25 Oct 2014 (Local Time) from KAXN Reporting Station
Clear Clear  
Wind Chill: 51°   Ceiling: Unl
Heat Index: 51°   Visibility: 10mi
Dew Point: 25°   Wind: 3mph
Humidity: 36%   Direction: 290°WNW
Pressure: 30.08"   Gusts: NA
Location:  46.04°N, 95.29°W
Report Text: KAXN 252353Z AUTO 29003KT 10SM CLR 11/M04 A3008 RMK AO2 SLP194 T01061039 10144 20100 57003
Loading
Personal Weather Stations






























Interactive Weather Map
Tropical Storm Tracking
New forecast layout! Learn more

10-Day Weather Forecast

Advertisements
Track Severe Weather on mobile